Time;durP1;ratioP1;P1;durP2;ratioP2;P2;SDS_P1;SDS_P2;PMS_P1;PMS_P2;Temp;Humidity;BMP_temperature;BMP_pressure;BME280_temperature;BME280_humidity;BME280_pressure;Samples;Min_cycle;Max_cycle;Signal;HPM_P1;HPM_P2
2022/09/18 00:00:59;;;;;;;2.83;1.00;;;18.70;59.80;;;;;;5052184;28;20179;-68
2022/09/18 00:03:24;;;;;;;2.63;1.00;;;18.80;59.90;;;;;;5053027;28;20217;-69
2022/09/18 00:05:50;;;;;;;2.20;1.00;;;18.80;59.90;;;;;;5051264;28;20179;-69
2022/09/18 00:08:15;;;;;;;2.28;1.00;;;18.80;59.90;;;;;;5051725;28;20553;-69
2022/09/18 00:10:42;;;;;;;1.63;1.08;;;18.80;59.90;;;;;;5052104;28;20227;-68
2022/09/18 00:13:08;;;;;;;3.28;0.93;;;18.70;60.00;;;;;;5052456;28;20175;-68
2022/09/18 00:15:33;;;;;;;3.88;1.35;;;18.80;60.00;;;;;;5052171;28;20190;-68
2022/09/18 00:17:59;;;;;;;1.58;0.93;;;18.70;59.90;;;;;;5052524;28;20171;-68
2022/09/18 00:20:25;;;;;;;1.88;1.13;;;18.70;60.00;;;;;;5052730;28;20688;-68
2022/09/18 00:22:50;;;;;;;1.98;1.27;;;18.70;59.90;;;;;;5052004;28;20268;-68
2022/09/18 00:25:16;;;;;;;2.53;1.27;;;18.70;60.00;;;;;;5052149;28;21108;-69
2022/09/18 00:27:41;;;;;;;1.75;1.08;;;18.70;60.00;;;;;;5052353;28;20189;-69
2022/09/18 00:30:07;;;;;;;2.17;1.17;;;18.70;60.00;;;;;;5051444;28;20229;-69
2022/09/18 00:32:33;;;;;;;1.45;0.80;;;18.70;60.00;;;;;;5052506;28;20179;-68
2022/09/18 00:34:58;;;;;;;2.08;0.98;;;18.70;60.00;;;;;;5052219;28;20567;-69
2022/09/18 00:37:24;;;;;;;2.45;1.10;;;18.70;60.00;;;;;;5051704;28;20171;-68
2022/09/18 00:39:49;;;;;;;3.28;1.25;;;18.70;60.10;;;;;;5052398;28;20171;-68
2022/09/18 00:42:17;;;;;;;2.47;0.98;;;18.70;60.00;;;;;;5051335;28;20225;-68
2022/09/18 00:44:47;;;;;;;2.00;1.10;;;18.70;60.10;;;;;;5051088;28;20210;-68
2022/09/18 00:47:22;;;;;;;2.33;1.00;;;18.60;60.00;;;;;;5051053;28;20202;-68
2022/09/18 00:50:10;;;;;;;2.88;1.30;;;18.60;60.00;;;;;;5034660;28;20534;-68
2022/09/18 00:53:00;;;;;;;1.25;1.00;;;18.60;60.00;;;;;;5051878;28;20653;-68
2022/09/18 00:55:38;;;;;;;2.22;1.00;;;18.70;60.10;;;;;;5051398;28;20186;-68
2022/09/18 00:58:04;;;;;;;2.67;1.63;;;18.60;60.10;;;;;;5034033;28;20170;-68
2022/09/18 01:00:30;;;;;;;1.85;0.82;;;18.70;60.10;;;;;;5050790;28;20171;-68
2022/09/18 01:02:56;;;;;;;4.07;1.00;;;18.60;60.10;;;;;;5051884;28;20246;-68
2022/09/18 01:06:00;;;;;;;3.17;1.13;;;18.70;60.20;;;;;;5033561;28;20656;-68
2022/09/18 01:08:56;;;;;;;1.88;1.00;;;18.60;60.10;;;;;;5051358;28;20265;-68
2022/09/18 01:11:40;;;;;;;1.42;1.08;;;18.70;60.20;;;;;;5051041;28;20568;-68
2022/09/18 01:14:08;;;;;;;2.10;1.15;;;18.70;60.20;;;;;;5034728;28;20305;-68
2022/09/18 01:16:39;;;;;;;2.00;1.15;;;18.60;60.10;;;;;;5050921;28;20179;-68
2022/09/18 01:19:36;;;;;;;1.40;1.00;;;18.60;60.10;;;;;;5033785;28;20186;-68
2022/09/18 01:22:13;;;;;;;2.60;0.90;;;18.60;60.10;;;;;;5051900;28;20179;-68
2022/09/18 01:24:46;;;;;;;2.65;1.10;;;18.60;60.10;;;;;;5054891;28;20174;-68
2022/09/18 01:27:31;;;;;;;2.03;1.00;;;18.60;60.10;;;;;;5054457;28;20171;-68
2022/09/18 01:30:01;;;;;;;1.73;0.70;;;18.60;60.10;;;;;;5054488;28;20186;-69
2022/09/18 01:32:30;;;;;;;1.83;0.88;;;18.60;60.20;;;;;;5054165;28;20187;-68
2022/09/18 01:35:09;;;;;;;1.88;1.10;;;18.60;60.20;;;;;;5056070;28;20182;-67
2022/09/18 01:37:45;;;;;;;1.45;1.05;;;18.60;60.20;;;;;;5055765;28;20187;-69
2022/09/18 01:40:21;;;;;;;1.92;1.05;;;18.60;60.20;;;;;;5036994;28;20221;-68
2022/09/18 01:42:47;;;;;;;2.03;0.70;;;18.60;60.20;;;;;;5054392;28;20209;-69
2022/09/18 01:45:15;;;;;;;3.42;1.30;;;18.60;60.20;;;;;;5054046;28;20179;-68
2022/09/18 01:47:50;;;;;;;1.27;0.90;;;18.60;60.20;;;;;;5037299;28;20646;-68
2022/09/18 01:50:15;;;;;;;0.93;0.60;;;18.60;60.20;;;;;;5037976;28;20206;-68
2022/09/18 01:52:47;;;;;;;2.45;1.30;;;18.60;60.20;;;;;;5054677;28;20221;-69
2022/09/18 01:55:19;;;;;;;1.63;1.00;;;18.60;60.30;;;;;;5037370;28;20179;-69
2022/09/18 01:57:58;;;;;;;2.53;1.05;;;18.50;60.30;;;;;;5037966;28;20262;-68
2022/09/18 02:00:24;;;;;;;2.25;0.90;;;18.60;60.30;;;;;;5053559;28;20171;-68
2022/09/18 02:03:06;;;;;;;1.33;1.10;;;18.60;60.40;;;;;;5054010;28;20271;-68
2022/09/18 02:05:38;;;;;;;3.17;1.10;;;18.60;60.30;;;;;;5053941;28;20266;-68
2022/09/18 02:08:23;;;;;;;1.27;0.80;;;18.50;60.30;;;;;;5036714;28;20313;-68
2022/09/18 02:10:51;;;;;;;1.60;0.90;;;18.60;60.40;;;;;;5038179;28;20211;-68
2022/09/18 02:13:19;;;;;;;1.67;0.80;;;18.60;60.40;;;;;;5053618;28;20179;-68
2022/09/18 02:15:44;;;;;;;3.17;1.13;;;18.60;60.40;;;;;;5036686;28;20172;-68
2022/09/18 02:18:31;;;;;;;1.88;0.77;;;18.60;60.40;;;;;;5036720;28;20391;-68
2022/09/18 02:20:57;;;;;;;0.80;0.60;;;18.60;60.50;;;;;;5052617;28;20175;-68
2022/09/18 02:23:23;;;;;;;1.58;0.90;;;18.50;60.40;;;;;;5053629;28;20316;-68
2022/09/18 02:25:50;;;;;;;1.35;0.85;;;18.60;60.50;;;;;;5037158;28;20194;-68
2022/09/18 02:28:16;;;;;;;4.95;1.17;;;18.50;60.50;;;;;;5053779;28;20171;-68
2022/09/18 02:30:42;;;;;;;2.00;0.90;;;18.60;60.50;;;;;;5050393;28;20257;-69
2022/09/18 02:33:29;;;;;;;2.47;1.00;;;18.60;60.50;;;;;;5073813;28;20206;-68
2022/09/18 02:36:11;;;;;;;2.30;1.00;;;18.50;60.50;;;;;;5073714;28;20178;-69
2022/09/18 02:38:44;;;;;;;3.80;0.73;;;18.50;60.50;;;;;;5073341;28;20174;-68
2022/09/18 02:41:23;;;;;;;1.77;0.90;;;18.50;60.50;;;;;;5072640;28;20159;-68
2022/09/18 02:43:54;;;;;;;2.47;1.10;;;18.50;60.50;;;;;;5072058;28;20174;-68
2022/09/18 02:47:00;;;;;;;2.55;0.73;;;18.50;60.60;;;;;;5072572;28;20197;-68
2022/09/18 02:50:07;;;;;;;1.95;0.80;;;18.50;60.60;;;;;;5052193;28;20186;-68
2022/09/18 02:52:41;;;;;;;2.42;0.70;;;18.50;60.50;;;;;;5073288;28;20315;-69
2022/09/18 02:55:10;;;;;;;2.45;1.20;;;18.50;60.50;;;;;;5057303;28;20174;-68
2022/09/18 02:58:01;;;;;;;1.83;0.88;;;18.50;60.60;;;;;;5055939;28;20174;-68
2022/09/18 03:00:27;;;;;;;1.70;0.95;;;18.50;61.50;;;;;;5057697;28;20246;-68
2022/09/18 03:02:55;;;;;;;1.88;0.82;;;18.50;60.60;;;;;;5072355;28;20174;-68
2022/09/18 03:05:21;;;;;;;1.30;0.95;;;18.50;60.60;;;;;;5072668;28;20187;-69
2022/09/18 03:07:46;;;;;;;2.00;1.13;;;18.50;60.60;;;;;;5073763;28;20730;-69
2022/09/18 03:10:12;;;;;;;2.15;1.15;;;18.40;60.60;;;;;;5072784;28;20198;-68
2022/09/18 03:12:37;;;;;;;2.92;1.30;;;18.50;60.70;;;;;;5073588;28;20194;-68
2022/09/18 03:15:04;;;;;;;0.88;0.60;;;18.50;60.70;;;;;;5073657;28;20197;-68
2022/09/18 03:17:29;;;;;;;1.48;0.90;;;18.50;60.70;;;;;;5073109;28;20210;-68
2022/09/18 03:19:55;;;;;;;1.17;0.80;;;18.40;60.70;;;;;;5073599;28;20244;-68
2022/09/18 03:22:21;;;;;;;2.03;0.70;;;18.50;60.90;;;;;;5073427;28;20196;-68
2022/09/18 03:24:46;;;;;;;1.00;0.63;;;18.50;60.80;;;;;;5072874;28;20167;-68
2022/09/18 03:27:12;;;;;;;1.50;0.88;;;18.40;60.70;;;;;;5072856;28;20235;-69
2022/09/18 03:29:37;;;;;;;2.35;0.88;;;18.50;60.80;;;;;;5073353;28;20636;-69
2022/09/18 03:32:03;;;;;;;2.17;1.13;;;18.40;60.70;;;;;;5072548;28;20672;-69
2022/09/18 03:34:28;;;;;;;1.63;0.90;;;18.40;60.80;;;;;;5073598;28;20579;-69
2022/09/18 03:36:54;;;;;;;1.85;0.90;;;18.40;60.80;;;;;;5073392;28;20185;-68
2022/09/18 03:39:19;;;;;;;1.65;0.90;;;18.40;60.70;;;;;;5072417;28;20538;-69
2022/09/18 03:41:45;;;;;;;1.80;0.88;;;18.40;60.70;;;;;;5073312;28;20179;-68
2022/09/18 03:44:10;;;;;;;1.83;0.77;;;18.40;60.80;;;;;;5073055;28;20182;-68
2022/09/18 03:46:37;;;;;;;3.20;0.80;;;18.40;60.80;;;;;;5071904;28;20167;-68
2022/09/18 03:49:02;;;;;;;2.00;0.90;;;18.40;60.70;;;;;;5072881;28;20560;-68
2022/09/18 03:51:28;;;;;;;1.95;0.80;;;18.40;60.80;;;;;;5073147;28;20194;-69
2022/09/18 03:53:53;;;;;;;1.55;0.80;;;18.40;60.80;;;;;;5072355;28;20170;-69
2022/09/18 03:56:19;;;;;;;0.88;0.85;;;18.40;60.80;;;;;;5073028;28;20175;-68
2022/09/18 03:58:44;;;;;;;2.03;0.73;;;18.40;61.00;;;;;;5073157;28;20174;-68
2022/09/18 04:01:11;;;;;;;1.60;0.90;;;18.40;60.80;;;;;;5072234;28;20174;-68
2022/09/18 04:03:37;;;;;;;1.65;0.80;;;18.40;60.90;;;;;;5073056;28;20178;-68
2022/09/18 04:06:03;;;;;;;1.50;0.95;;;18.40;60.80;;;;;;5072234;28;20706;-68
2022/09/18 04:08:28;;;;;;;1.40;0.57;;;18.40;60.80;;;;;;5072135;28;20229;-68
2022/09/18 04:10:54;;;;;;;1.52;0.80;;;18.40;60.80;;;;;;5072712;28;20206;-68
2022/09/18 04:13:19;;;;;;;1.27;0.60;;;18.40;60.80;;;;;;5071964;28;20171;-68
2022/09/18 04:15:48;;;;;;;2.50;1.23;;;18.40;60.90;;;;;;5072848;28;20325;-68
2022/09/18 04:18:14;;;;;;;2.45;0.75;;;18.40;60.90;;;;;;5072507;28;20253;-68
2022/09/18 04:20:40;;;;;;;1.25;0.73;;;18.40;60.90;;;;;;5072026;28;20253;-67
2022/09/18 04:23:05;;;;;;;0.77;0.70;;;18.40;61.80;;;;;;5071554;28;20166;-68
2022/09/18 04:25:31;;;;;;;1.83;0.90;;;18.40;61.00;;;;;;5072646;28;20178;-68
2022/09/18 04:28:00;;;;;;;1.13;0.82;;;18.40;61.00;;;;;;5071666;28;20175;-68
2022/09/18 04:30:25;;;;;;;1.17;0.60;;;18.40;60.90;;;;;;5072465;28;20210;-68
2022/09/18 04:32:51;;;;;;;1.33;0.80;;;18.40;60.90;;;;;;5072634;28;20236;-68
2022/09/18 04:35:17;;;;;;;1.88;0.80;;;18.40;60.90;;;;;;5071486;28;20178;-68
2022/09/18 04:37:43;;;;;;;0.93;0.47;;;18.40;61.00;;;;;;5072292;28;20209;-68
2022/09/18 04:40:09;;;;;;;2.03;0.98;;;18.40;60.90;;;;;;5072374;28;20232;-68
2022/09/18 04:42:35;;;;;;;2.28;0.93;;;18.30;60.90;;;;;;5071921;28;20174;-68
2022/09/18 04:45:01;;;;;;;1.48;0.70;;;18.40;60.90;;;;;;5072005;28;20179;-68
2022/09/18 04:47:26;;;;;;;1.20;0.68;;;18.30;61.00;;;;;;5071989;28;20162;-68
2022/09/18 04:49:52;;;;;;;2.25;0.70;;;18.40;61.00;;;;;;5071598;28;20323;-68
2022/09/18 04:52:18;;;;;;;1.25;0.45;;;18.40;61.00;;;;;;5071997;28;20954;-68
2022/09/18 04:54:43;;;;;;;3.22;0.90;;;18.30;60.90;;;;;;5072401;28;20261;-68
2022/09/18 04:57:09;;;;;;;1.88;0.77;;;18.30;60.90;;;;;;5071435;28;20175;-68
2022/09/18 04:59:35;;;;;;;1.63;0.88;;;18.30;60.90;;;;;;5072399;28;20171;-67
2022/09/18 05:02:00;;;;;;;1.85;0.70;;;18.30;60.90;;;;;;5071686;28;20178;-68
2022/09/18 05:04:26;;;;;;;1.35;0.80;;;18.30;61.00;;;;;;5071186;28;20595;-68
2022/09/18 05:06:51;;;;;;;1.58;0.88;;;18.30;61.00;;;;;;5071656;28;20226;-68
2022/09/18 05:09:17;;;;;;;1.08;0.80;;;18.30;61.00;;;;;;5072077;28;20204;-68
2022/09/18 05:11:42;;;;;;;1.55;0.82;;;18.30;61.00;;;;;;5071080;28;20226;-68
2022/09/18 05:14:08;;;;;;;3.25;0.80;;;18.30;61.10;;;;;;5071861;28;20287;-67
2022/09/18 05:16:33;;;;;;;1.15;0.93;;;18.30;61.00;;;;;;5071454;28;20207;-67
2022/09/18 05:18:59;;;;;;;1.85;0.90;;;18.30;61.00;;;;;;5071756;28;20251;-68
2022/09/18 05:21:24;;;;;;;1.08;0.60;;;18.30;61.10;;;;;;5071718;28;20627;-68
2022/09/18 05:23:50;;;;;;;0.95;0.70;;;18.30;61.00;;;;;;5071387;28;20592;-68
2022/09/18 05:26:15;;;;;;;1.05;0.73;;;18.30;61.10;;;;;;5071509;28;20182;-68
2022/09/18 05:28:41;;;;;;;1.25;0.80;;;18.30;61.20;;;;;;5072068;28;20311;-68
2022/09/18 05:31:07;;;;;;;2.00;1.10;;;18.30;61.10;;;;;;5070921;28;20258;-68
2022/09/18 05:33:32;;;;;;;2.22;0.80;;;18.30;61.10;;;;;;5071890;28;20249;-68
2022/09/18 05:35:58;;;;;;;1.10;0.73;;;18.30;61.10;;;;;;5069856;28;20767;-68
2022/09/18 05:38:24;;;;;;;1.42;0.77;;;18.30;61.10;;;;;;5071279;28;20328;-68
2022/09/18 05:40:49;;;;;;;1.30;0.70;;;18.30;61.10;;;;;;5071822;28;20182;-68
2022/09/18 05:43:15;;;;;;;1.27;0.70;;;18.30;61.10;;;;;;5071308;28;20174;-68
2022/09/18 05:45:41;;;;;;;1.02;0.60;;;18.30;61.10;;;;;;5070546;28;20659;-68
2022/09/18 05:48:07;;;;;;;1.30;0.50;;;18.30;61.10;;;;;;5071350;28;20185;-68
2022/09/18 05:50:32;;;;;;;1.00;0.65;;;18.30;61.20;;;;;;5071601;28;20365;-69
2022/09/18 05:53:05;;;;;;;1.92;0.95;;;18.30;61.20;;;;;;5070097;28;20175;-68
2022/09/18 05:55:31;;;;;;;0.93;0.82;;;18.30;61.10;;;;;;5071907;28;20182;-68
2022/09/18 05:57:57;;;;;;;0.98;0.60;;;18.30;61.20;;;;;;5071138;28;20562;-68
2022/09/18 06:00:23;;;;;;;1.15;0.60;;;18.30;61.20;;;;;;5071043;28;20181;-68
2022/09/18 06:02:54;;;;;;;0.88;0.68;;;18.30;61.20;;;;;;5071386;28;20174;-68
2022/09/18 06:05:19;;;;;;;2.05;0.82;;;18.30;61.20;;;;;;5071177;28;20241;-68
2022/09/18 06:07:45;;;;;;;2.97;0.75;;;18.30;61.30;;;;;;5070699;28;20222;-68
2022/09/18 06:10:10;;;;;;;1.58;0.75;;;18.20;61.20;;;;;;5074787;28;20170;-68
2022/09/18 06:12:36;;;;;;;1.33;0.63;;;18.20;61.20;;;;;;5075230;28;20213;-68
2022/09/18 06:15:01;;;;;;;2.28;0.98;;;18.20;61.20;;;;;;5074021;28;20266;-68
2022/09/18 06:17:27;;;;;;;0.73;0.50;;;18.20;61.30;;;;;;5074983;28;20324;-68
2022/09/18 06:19:52;;;;;;;0.80;0.70;;;18.20;61.30;;;;;;5074226;28;20304;-68
2022/09/18 06:22:18;;;;;;;1.35;0.70;;;18.20;61.30;;;;;;5074642;28;20166;-68
2022/09/18 06:24:43;;;;;;;1.92;0.82;;;18.20;61.30;;;;;;5075180;28;20196;-68
2022/09/18 06:27:09;;;;;;;0.98;0.57;;;18.20;61.30;;;;;;5074282;28;20189;-68
2022/09/18 06:29:34;;;;;;;0.77;0.55;;;18.20;61.30;;;;;;5075171;28;20261;-69
2022/09/18 06:32:00;;;;;;;1.02;0.63;;;18.20;61.30;;;;;;5075063;28;20267;-68
2022/09/18 06:34:26;;;;;;;1.95;0.80;;;18.20;61.40;;;;;;5074549;28;20640;-68
2022/09/18 06:36:51;;;;;;;1.10;0.60;;;18.20;61.40;;;;;;5075383;28;20174;-67
2022/09/18 06:39:17;;;;;;;0.73;0.60;;;18.20;61.30;;;;;;5075102;28;20225;-68
2022/09/18 06:41:42;;;;;;;1.70;0.60;;;18.20;61.30;;;;;;5074593;28;20175;-68
2022/09/18 06:44:07;;;;;;;1.05;0.63;;;18.20;61.40;;;;;;5074612;28;20637;-68
2022/09/18 06:46:33;;;;;;;1.52;0.60;;;18.20;61.40;;;;;;5074860;28;20265;-68
2022/09/18 06:48:59;;;;;;;2.63;0.80;;;18.20;61.40;;;;;;5073717;28;20173;-68
2022/09/18 06:51:24;;;;;;;1.10;0.70;;;18.20;61.40;;;;;;5074898;28;20210;-68
2022/09/18 06:53:50;;;;;;;1.77;0.80;;;18.20;61.40;;;;;;5075079;28;20163;-68
2022/09/18 06:56:15;;;;;;;1.52;1.00;;;18.20;61.40;;;;;;5074142;28;20266;-68
2022/09/18 06:58:41;;;;;;;1.38;0.63;;;18.20;61.40;;;;;;5074595;28;20613;-68
2022/09/18 07:01:06;;;;;;;1.75;0.60;;;18.20;61.50;;;;;;5074408;28;20177;-68
2022/09/18 07:03:32;;;;;;;2.25;0.90;;;18.20;61.40;;;;;;5073712;28;20204;-68
2022/09/18 07:05:57;;;;;;;0.70;0.60;;;18.20;61.40;;;;;;5074720;28;20174;-68
2022/09/18 07:08:23;;;;;;;1.40;0.77;;;18.20;61.40;;;;;;5074493;28;20272;-68
2022/09/18 07:10:48;;;;;;;1.73;0.60;;;18.20;61.50;;;;;;5073946;28;20210;-68
2022/09/18 07:13:14;;;;;;;1.20;0.60;;;18.20;61.50;;;;;;5074500;28;20656;-68
2022/09/18 07:15:39;;;;;;;3.40;0.60;;;18.20;61.40;;;;;;5074524;28;20249;-68
2022/09/18 07:18:06;;;;;;;0.50;0.50;;;18.20;61.50;;;;;;5073379;28;20567;-68
2022/09/18 07:20:32;;;;;;;0.98;0.60;;;18.20;61.50;;;;;;5073323;28;20656;-67
2022/09/18 07:22:59;;;;;;;1.50;0.55;;;18.20;61.60;;;;;;5074300;28;20178;-68
2022/09/18 07:25:25;;;;;;;0.77;0.77;;;18.20;61.60;;;;;;5073977;28;20206;-68
2022/09/18 07:27:51;;;;;;;0.73;0.40;;;18.20;61.50;;;;;;5074313;28;20174;-68
2022/09/18 07:30:17;;;;;;;0.90;0.63;;;18.20;61.60;;;;;;5073330;28;20668;-69
2022/09/18 07:32:43;;;;;;;2.03;0.77;;;18.20;61.60;;;;;;5072986;28;20249;-68
2022/09/18 07:35:09;;;;;;;0.82;0.60;;;18.20;61.60;;;;;;5074021;28;20182;-68
2022/09/18 07:37:35;;;;;;;2.13;0.95;;;18.20;61.60;;;;;;5073541;28;20177;-68
2022/09/18 07:40:00;;;;;;;1.92;0.60;;;18.20;61.60;;;;;;5073969;28;20498;-68
2022/09/18 07:42:26;;;;;;;1.85;0.65;;;18.20;61.60;;;;;;5073861;28;20645;-68
2022/09/18 07:44:52;;;;;;;1.27;0.85;;;18.20;61.60;;;;;;5073268;28;20181;-68
2022/09/18 07:47:18;;;;;;;1.67;0.68;;;18.20;61.60;;;;;;5073115;28;20174;-68
2022/09/18 07:49:44;;;;;;;0.63;0.50;;;18.20;61.60;;;;;;5074129;28;20220;-68
2022/09/18 07:52:09;;;;;;;1.83;1.17;;;18.20;61.60;;;;;;5072969;28;20210;-68
2022/09/18 07:54:35;;;;;;;1.15;0.63;;;18.20;61.70;;;;;;5073979;28;20626;-68
2022/09/18 07:57:00;;;;;;;2.08;0.70;;;18.20;61.70;;;;;;5072904;28;20665;-68
2022/09/18 07:59:26;;;;;;;2.05;0.70;;;18.20;61.70;;;;;;5072574;28;20175;-68
2022/09/18 08:01:54;;;;;;;0.65;0.60;;;18.20;61.70;;;;;;5073291;28;20176;-68
2022/09/18 08:04:20;;;;;;;2.33;0.70;;;18.20;61.70;;;;;;5074053;28;20250;-68
2022/09/18 08:06:50;;;;;;;1.60;0.60;;;18.20;61.60;;;;;;5072767;28;20708;-68
2022/09/18 08:09:15;;;;;;;0.77;0.40;;;18.20;61.60;;;;;;5073305;28;20213;-68
2022/09/18 08:11:41;;;;;;;1.13;0.60;;;18.20;61.70;;;;;;5073406;28;20545;-68
2022/09/18 08:14:07;;;;;;;1.00;0.85;;;18.20;61.60;;;;;;5072140;28;20166;-68
2022/09/18 08:16:33;;;;;;;0.80;0.57;;;18.20;61.60;;;;;;5073406;28;20187;-68
2022/09/18 08:18:58;;;;;;;0.77;0.60;;;18.20;61.60;;;;;;5072979;28;20644;-68
2022/09/18 08:21:24;;;;;;;2.38;0.68;;;18.20;61.60;;;;;;5072769;28;20178;-68
2022/09/18 08:23:49;;;;;;;1.08;0.77;;;18.20;61.60;;;;;;5073237;28;20170;-68
2022/09/18 08:26:15;;;;;;;0.80;0.50;;;18.20;61.60;;;;;;5072602;28;20755;-68
2022/09/18 08:28:40;;;;;;;0.82;0.60;;;18.20;61.60;;;;;;5072145;28;20185;-72
2022/09/18 08:31:06;;;;;;;4.82;0.98;;;18.20;61.70;;;;;;5072565;28;20280;-72
2022/09/18 08:33:31;;;;;;;1.40;0.60;;;18.20;61.70;;;;;;5072370;28;20178;-71
2022/09/18 08:35:57;;;;;;;1.10;0.95;;;18.20;61.90;;;;;;5073010;28;20533;-71
2022/09/18 08:38:22;;;;;;;1.95;0.73;;;18.30;62.00;;;;;;5073067;28;20656;-70
2022/09/18 08:41:27;;;;;;;2.88;1.10;;;18.20;62.00;;;;;;5072425;28;20190;-71
2022/09/18 08:44:10;;;;;;;5.60;1.05;;;18.30;62.00;;;;;;5064599;28;20203;-70
2022/09/18 08:46:47;;;;;;;2.88;1.10;;;18.30;62.30;;;;;;5071621;28;20178;-71
2022/09/18 08:49:23;;;;;;;6.32;1.30;;;18.30;62.40;;;;;;5055103;28;20162;-70
2022/09/18 08:52:02;;;;;;;6.60;1.27;;;18.30;62.20;;;;;;5071423;28;20209;-72
2022/09/18 08:54:48;;;;;;;3.53;1.02;;;18.30;62.20;;;;;;5055866;28;20175;-73
2022/09/18 08:57:24;;;;;;;5.07;1.02;;;18.30;62.50;;;;;;5071255;28;20174;-73
2022/09/18 08:59:53;;;;;;;3.60;0.90;;;18.40;62.40;;;;;;5071736;28;20621;-73
2022/09/18 09:02:47;;;;;;;5.95;1.70;;;18.40;62.50;;;;;;5070783;28;20193;-72
2022/09/18 09:05:17;;;;;;;2.40;1.40;;;18.50;62.80;;;;;;5071370;28;20210;-75
2022/09/18 09:07:58;;;;;;;4.72;1.02;;;18.50;62.90;;;;;;5071483;28;20214;-72
2022/09/18 09:10:35;;;;;;;3.58;1.48;;;18.50;62.90;;;;;;5070423;28;20248;-75
2022/09/18 09:13:25;;;;;;;6.15;1.27;;;18.50;63.00;;;;;;5055575;28;20255;-73
2022/09/18 09:15:56;;;;;;;1.95;1.10;;;18.50;63.00;;;;;;5072005;28;20167;-74
2022/09/18 09:18:27;;;;;;;4.28;1.15;;;18.50;63.00;;;;;;5072523;28;20664;-75
2022/09/18 09:20:56;;;;;;;4.63;1.33;;;18.50;63.30;;;;;;5071279;28;20208;-74
2022/09/18 09:23:22;;;;;;;3.80;1.38;;;18.50;63.30;;;;;;5072167;28;20179;-70
2022/09/18 09:25:58;;;;;;;2.45;1.25;;;18.50;63.20;;;;;;5072753;28;20530;-73
2022/09/18 09:28:58;;;;;;;4.47;1.52;;;18.50;63.30;;;;;;5072579;28;20173;-69
2022/09/18 09:31:26;;;;;;;4.00;1.10;;;18.50;63.40;;;;;;5070715;28;20202;-67
2022/09/18 09:34:22;;;;;;;2.45;1.15;;;18.60;63.20;;;;;;5071569;28;20179;-71
2022/09/18 09:36:48;;;;;;;9.80;1.95;;;18.60;63.10;;;;;;5061436;28;20190;-73
2022/09/18 09:39:26;;;;;;;5.43;1.50;;;18.60;63.00;;;;;;5070968;28;20652;-73
2022/09/18 09:41:57;;;;;;;2.83;1.13;;;18.60;63.30;;;;;;5054893;28;20197;-70
2022/09/18 09:44:37;;;;;;;4.18;1.30;;;18.50;63.30;;;;;;5073311;28;20179;-70
2022/09/18 09:47:24;;;;;;;4.55;1.33;;;18.50;63.30;;;;;;5075793;28;20178;-69
2022/09/18 09:50:08;;;;;;;7.50;1.63;;;18.50;63.40;;;;;;5074991;28;20659;-68
2022/09/18 09:52:35;;;;;;;9.38;2.00;;;18.60;63.40;;;;;;5075318;28;20730;-69
2022/09/18 09:55:13;;;;;;;6.13;1.60;;;18.60;63.20;;;;;;5075850;28;20178;-69
2022/09/18 09:58:14;;;;;;;5.40;1.40;;;18.50;63.10;;;;;;5076256;28;20190;-70
2022/09/18 10:00:47;;;;;;;12.07;1.88;;;18.50;63.40;;;;;;5075567;28;20175;-67
2022/09/18 10:03:15;;;;;;;14.32;1.83;;;18.60;63.60;;;;;;5058540;28;20218;-70
2022/09/18 10:05:52;;;;;;;6.15;1.60;;;18.60;63.20;;;;;;5074540;28;20617;-71
2022/09/18 10:08:43;;;;;;;9.27;1.40;;;18.60;63.40;;;;;;5073958;28;20221;-70
2022/09/18 10:11:10;;;;;;;6.28;1.75;;;18.50;63.70;;;;;;5074188;28;20322;-70
2022/09/18 10:13:57;;;;;;;6.53;1.40;;;18.50;63.50;;;;;;5075184;28;20175;-70
2022/09/18 10:16:25;;;;;;;3.20;1.23;;;18.50;63.60;;;;;;5074745;28;20177;-70
2022/09/18 10:18:50;;;;;;;7.30;2.03;;;18.50;63.50;;;;;;5074096;28;20220;-70
2022/09/18 10:21:16;;;;;;;7.15;0.93;;;18.50;63.60;;;;;;5075166;28;20178;-70
2022/09/18 10:23:44;;;;;;;1.77;1.10;;;18.50;63.50;;;;;;5075683;28;20179;-70
2022/09/18 10:26:13;;;;;;;7.00;1.40;;;18.50;63.50;;;;;;5073544;28;20569;-70
2022/09/18 10:28:39;;;;;;;3.67;1.50;;;18.50;63.40;;;;;;5058297;28;20231;-70
2022/09/18 10:31:08;;;;;;;6.88;1.55;;;18.50;63.60;;;;;;5075156;28;20206;-70
2022/09/18 10:33:36;;;;;;;3.72;1.20;;;18.50;63.50;;;;;;5074780;28;20166;-70
2022/09/18 10:36:09;;;;;;;3.55;1.00;;;18.50;63.50;;;;;;5074984;28;20179;-70
2022/09/18 10:38:36;;;;;;;2.08;1.10;;;18.50;63.60;;;;;;5074316;28;20319;-71
2022/09/18 10:41:17;;;;;;;3.13;1.33;;;18.50;63.40;;;;;;5074431;28;20189;-69
2022/09/18 10:43:53;;;;;;;5.45;1.30;;;18.50;63.40;;;;;;5074311;28;20261;-69
2022/09/18 10:46:24;;;;;;;1.23;0.65;;;18.50;63.30;;;;;;5057152;28;20253;-69
2022/09/18 10:48:50;;;;;;;2.70;1.30;;;18.50;63.40;;;;;;5073247;28;20186;-69
2022/09/18 10:51:16;;;;;;;4.00;1.23;;;18.50;63.30;;;;;;5073484;28;20217;-69
2022/09/18 10:53:42;;;;;;;2.13;0.93;;;18.50;63.50;;;;;;5073695;28;20186;-69
2022/09/18 10:56:18;;;;;;;1.92;0.80;;;18.50;63.40;;;;;;5074129;28;20170;-69
2022/09/18 10:58:44;;;;;;;2.63;0.90;;;18.50;63.40;;;;;;5074845;28;20178;-70
2022/09/18 11:01:10;;;;;;;2.50;0.77;;;18.50;63.40;;;;;;5072592;28;20185;-70
2022/09/18 11:03:42;;;;;;;3.53;0.90;;;18.50;63.30;;;;;;5073789;28;20171;-71
2022/09/18 11:06:18;;;;;;;2.47;0.70;;;18.50;63.40;;;;;;5073369;28;20189;-70
2022/09/18 11:08:47;;;;;;;3.97;1.10;;;18.50;63.20;;;;;;5072924;28;20178;-70
2022/09/18 11:11:33;;;;;;;4.30;0.93;;;18.50;63.50;;;;;;5074313;28;20214;-70
2022/09/18 11:13:59;;;;;;;2.75;1.08;;;18.50;63.40;;;;;;5058082;28;20175;-71
2022/09/18 11:16:30;;;;;;;1.85;0.80;;;18.50;63.50;;;;;;5072644;28;20178;-70
2022/09/18 11:19:05;;;;;;;1.92;0.82;;;18.40;63.40;;;;;;5073326;28;20179;-71
2022/09/18 11:21:30;;;;;;;2.53;1.10;;;18.40;63.20;;;;;;5056409;28;20541;-71
2022/09/18 11:24:08;;;;;;;4.78;1.60;;;18.40;63.20;;;;;;5055462;28;20174;-70
2022/09/18 11:26:34;;;;;;;4.57;1.15;;;18.40;63.60;;;;;;5073089;28;20174;-70
2022/09/18 11:29:23;;;;;;;7.05;1.00;;;18.40;63.70;;;;;;5074218;28;20186;-70
2022/09/18 11:31:52;;;;;;;2.35;0.90;;;18.30;64.20;;;;;;5073703;28;20210;-71
2022/09/18 11:34:32;;;;;;;6.72;1.30;;;18.40;63.90;;;;;;5055321;28;20175;-73
2022/09/18 11:37:00;;;;;;;3.13;0.80;;;18.40;63.70;;;;;;5073167;28;20232;-73
2022/09/18 11:39:27;;;;;;;2.40;0.93;;;18.40;63.60;;;;;;5073090;28;20259;-71
2022/09/18 11:41:53;;;;;;;3.58;0.98;;;18.40;63.60;;;;;;5073285;28;20265;-72
2022/09/18 11:44:24;;;;;;;6.15;1.00;;;18.40;63.50;;;;;;5055172;28;20258;-70
2022/09/18 11:47:20;;;;;;;4.05;1.40;;;18.50;63.60;;;;;;5072143;28;20185;-71
2022/09/18 11:50:13;;;;;;;4.53;1.00;;;18.50;63.60;;;;;;5073399;28;20204;-70
2022/09/18 11:52:49;;;;;;;3.90;1.50;;;18.40;63.20;;;;;;5069598;28;20193;-71
2022/09/18 11:55:27;;;;;;;6.18;1.30;;;18.40;63.20;;;;;;5072071;28;20178;-66
2022/09/18 11:57:58;;;;;;;3.95;1.45;;;18.50;63.30;;;;;;5055635;28;20177;-67
2022/09/18 12:00:26;;;;;;;3.03;1.05;;;18.50;63.60;;;;;;5056595;28;20174;-67
2022/09/18 12:03:04;;;;;;;4.30;1.48;;;18.50;63.80;;;;;;5056123;28;20240;-67
2022/09/18 12:05:36;;;;;;;6.90;1.60;;;18.60;64.00;;;;;;5072483;28;20217;-65
2022/09/18 12:08:14;;;;;;;9.98;1.83;;;18.60;64.00;;;;;;5071799;28;20299;-68
2022/09/18 12:11:03;;;;;;;5.68;1.10;;;18.60;63.70;;;;;;5073602;28;20266;-71
2022/09/18 12:13:34;;;;;;;5.88;1.33;;;18.60;63.60;;;;;;5072850;28;20531;-70
2022/09/18 12:16:38;;;;;;;7.93;1.70;;;18.60;63.70;;;;;;5073048;28;20698;-70
2022/09/18 12:19:12;;;;;;;6.55;1.45;;;18.60;63.70;;;;;;5072402;28;20569;-70
2022/09/18 12:21:59;;;;;;;8.07;1.50;;;18.60;63.90;;;;;;5056364;28;20174;-70
2022/09/18 12:24:24;;;;;;;9.45;1.50;;;18.60;63.90;;;;;;5073393;28;20186;-67
2022/09/18 12:27:27;;;;;;;11.82;1.45;;;18.70;63.60;;;;;;5072488;28;20637;-69
2022/09/18 12:30:11;;;;;;;9.38;1.17;;;18.60;63.40;;;;;;5072020;28;20174;-68
2022/09/18 12:32:58;;;;;;;7.20;1.30;;;18.50;63.30;;;;;;5072449;28;20218;-69
2022/09/18 12:35:46;;;;;;;3.83;1.10;;;18.50;63.60;;;;;;5073071;28;20524;-69
2022/09/18 12:38:22;;;;;;;5.05;1.17;;;18.50;63.60;;;;;;5071603;28;20178;-69
2022/09/18 12:41:20;;;;;;;3.55;0.95;;;18.40;63.60;;;;;;5071081;28;20174;-69
2022/09/18 12:44:11;;;;;;;2.85;0.80;;;18.40;63.70;;;;;;5060696;28;20209;-68
2022/09/18 12:46:52;;;;;;;4.25;1.02;;;18.40;63.90;;;;;;5071281;28;20261;-68
2022/09/18 12:49:29;;;;;;;4.00;1.10;;;18.40;63.80;;;;;;5071530;28;20612;-68
2022/09/18 12:52:18;;;;;;;6.70;1.10;;;18.40;63.80;;;;;;5072832;28;20707;-68
2022/09/18 12:55:00;;;;;;;6.93;1.20;;;18.40;63.90;;;;;;5072210;28;20174;-69
2022/09/18 12:57:52;;;;;;;2.67;0.90;;;18.30;63.80;;;;;;5055634;28;20174;-68
2022/09/18 13:00:18;;;;;;;2.60;0.80;;;18.30;63.70;;;;;;5056885;28;20217;-68
2022/09/18 13:02:50;;;;;;;2.03;1.10;;;18.30;63.80;;;;;;5072277;28;20206;-69
2022/09/18 13:05:34;;;;;;;2.25;0.80;;;18.30;63.60;;;;;;5071271;28;20663;-69